Terminal Aerodrome Forecast
Issued by NWS

Home | Current Version | Previous Version | Text Only | Print | Product List | Glossary On
Versions: 1 2 3 4 5 6 7 8 9 10 11 12 13 14 15 16 17
000
FTUS46 KPQR 221133
TAFONP
TAF
KONP 221133Z 2212/2312 13012KT P6SM -SHRA SCT015 BKN050
     FM221500 19020G28KT P6SM -SHRA SCT020 BKN070
     FM222000 18025G35KT P6SM -SHRA BKN050 OVC100=

USA.gov is the U.S. government's official web portal to all federal, state and local government web resources and services.